Seaton, Illinois
Current Conditions -  °F | °C
As of 3:35 PM on Monday 24 Nov 2014 (Local Time) from KGBG Reporting Station
Overcast Overcast  
Wind Chill: 14°   Ceiling: 1100
Heat Index: 28°   Visibility: 7mi
Dew Point: 26°   Wind: 21mph
Humidity: 93%   Direction: 260°W
Pressure: 29.69"   Gusts: 26mph
Location:  41.1°N, 90.8°W
Report Text: KGBG 242135Z AUTO 26018G23KT 7SM OVC011 M02/M03 A2969 RMK AO2 T10251035
Loading
Personal Weather Stations






























Interactive Weather Map New forecast layout! Learn more

10-Day Weather Forecast

Advertisements
Track Severe Weather on mobile